PWSweather.com
Personal Weather Stations
Station Observations
METEOC500
Santo Antonio, FunchalPT 2020

Santo AntonioFunchalPT 2020

Lat: 32.678227, Lon: -16.945054

Elevation: 1669.94751

Station Type: WH Series

High Low Average
Temperature 69.3°F20.7°C 57.2°F14.0°C 61.4°F16.3°C
Dew Point 59.9°F15.5°C 50.9°F10.5°C 55.0°F12.8°C
Winds 9.6 mph 15.4 kmh Calm Calm 4.0 mph W6.4 kmh W
Wind Gusts 12.5 mph20.1 kmh -- 8.0 mph12.9 kmh
Humidity 91% 66% 80%
Pressure 30.26 in1024.7 mb 30.19 in1022.4 mb -
Precipitation 0.00 in0.0 mm - -
Hour Temp Dew Point Humidity Winds Wind Gusts Pressure Precip Precip Rate Daily Precip Total
12:10 AM 59.4°F15.2°C 52.2°F11.2°C 77% 5.6 mph NNW9.0 kmh NNW 10.1 mph16.3 kmh 30.25 in1024.4 mb 0.00 in0.0 mm 0.00 in0.0 mm 0.00 in0.0 mm
12:25 AM 59.9°F15.5°C 52.0°F11.1°C 75% 4.9 mph NW7.9 kmh NW 10.1 mph16.3 kmh 30.25 in1024.4 mb 0.00 in0.0 mm 0.00 in0.0 mm 0.00 in0.0 mm
12:40 AM 60.1°F15.6°C 51.4°F10.8°C 73% 6.9 mph NNW11.1 kmh NNW 10.1 mph16.3 kmh 30.25 in1024.4 mb 0.00 in0.0 mm 0.00 in0.0 mm 0.00 in0.0 mm
12:55 AM 60.1°F15.6°C 51.1°F10.6°C 72% 6.3 mph NNW10.1 kmh NNW 10.1 mph16.3 kmh 30.24 in1024.0 mb 0.00 in0.0 mm 0.00 in0.0 mm 0.00 in0.0 mm
01:10 AM 59.7°F15.4°C 51.4°F10.8°C 74% 6.0 mph NNW9.7 kmh NNW 10.1 mph16.3 kmh 30.24 in1024.0 mb 0.00 in0.0 mm 0.00 in0.0 mm 0.00 in0.0 mm
01:25 AM 59.7°F15.4°C 51.1°F10.6°C 73% 6.3 mph N10.1 kmh N 10.1 mph16.3 kmh 30.23 in1023.7 mb 0.00 in0.0 mm 0.00 in0.0 mm 0.00 in0.0 mm
01:40 AM 59.5°F15.3°C 51.3°F10.7°C 74% 5.6 mph N9.0 kmh N 10.1 mph16.3 kmh 30.22 in1023.4 mb 0.00 in0.0 mm 0.00 in0.0 mm 0.00 in0.0 mm
02:43 AM 58.8°F14.9°C 52.0°F11.1°C 78% 8.5 mph N13.7 kmh N 10.1 mph16.3 kmh 30.22 in1023.4 mb 0.00 in0.0 mm 0.00 in0.0 mm 0.00 in0.0 mm
02:58 AM 59.0°F15.0°C 51.4°F10.8°C 76% 5.4 mph NNW8.7 kmh NNW 10.1 mph16.3 kmh 30.22 in1023.4 mb 0.00 in0.0 mm 0.00 in0.0 mm 0.00 in0.0 mm
03:13 AM 58.8°F14.9°C 52.0°F11.1°C 78% 4.9 mph NNW7.9 kmh NNW 10.1 mph16.3 kmh 30.22 in1023.4 mb 0.00 in0.0 mm 0.00 in0.0 mm 0.00 in0.0 mm
03:28 AM 58.6°F14.8°C 51.1°F10.6°C 76% 6.5 mph N10.5 kmh N 12.5 mph20.1 kmh 30.22 in1023.4 mb 0.00 in0.0 mm 0.00 in0.0 mm 0.00 in0.0 mm
03:43 AM 58.8°F14.9°C 51.6°F10.9°C 77% 5.6 mph N9.0 kmh N 10.1 mph16.3 kmh 30.22 in1023.4 mb 0.00 in0.0 mm 0.00 in0.0 mm 0.00 in0.0 mm
03:58 AM 58.8°F14.9°C 51.6°F10.9°C 77% 5.4 mph NNW8.7 kmh NNW 10.1 mph16.3 kmh 30.22 in1023.4 mb 0.00 in0.0 mm 0.00 in0.0 mm 0.00 in0.0 mm
04:13 AM 58.8°F14.9°C 51.3°F10.7°C 76% 4.9 mph NNW7.9 kmh NNW 10.1 mph16.3 kmh 30.21 in1023.0 mb 0.00 in0.0 mm 0.00 in0.0 mm 0.00 in0.0 mm
04:28 AM 58.8°F14.9°C 50.9°F10.5°C 75% 6.3 mph NW10.1 kmh NW 10.1 mph16.3 kmh 30.22 in1023.4 mb 0.00 in0.0 mm 0.00 in0.0 mm 0.00 in0.0 mm
04:43 AM 59.2°F15.1°C 51.6°F10.9°C 76% 6.3 mph N10.1 kmh N 10.1 mph16.3 kmh 30.21 in1023.0 mb 0.00 in0.0 mm 0.00 in0.0 mm 0.00 in0.0 mm
04:58 AM 59.0°F15.0°C 51.8°F11.0°C 77% 4.0 mph NNW6.4 kmh NNW 10.1 mph16.3 kmh 30.21 in1023.0 mb 0.00 in0.0 mm 0.00 in0.0 mm 0.00 in0.0 mm
05:13 AM 58.6°F14.8°C 51.4°F10.8°C 77% 4.7 mph N7.6 kmh N 10.1 mph16.3 kmh 30.22 in1023.4 mb 0.00 in0.0 mm 0.00 in0.0 mm 0.00 in0.0 mm
05:28 AM 58.1°F14.5°C 51.6°F10.9°C 79% 4.9 mph NNW7.9 kmh NNW 7.6 mph12.2 kmh 30.22 in1023.4 mb 0.00 in0.0 mm 0.00 in0.0 mm 0.00 in0.0 mm
05:43 AM 57.6°F14.2°C 51.4°F10.8°C 80% 3.8 mph NNW6.1 kmh NNW 7.6 mph12.2 kmh 30.22 in1023.4 mb 0.00 in0.0 mm 0.00 in0.0 mm 0.00 in0.0 mm
05:58 AM 57.2°F14.0°C 51.4°F10.8°C 81% 5.4 mph NNW8.7 kmh NNW 10.1 mph16.3 kmh 30.22 in1023.4 mb 0.00 in0.0 mm 0.00 in0.0 mm 0.00 in0.0 mm
06:13 AM 57.4°F14.1°C 51.3°F10.7°C 80% 4.7 mph N7.6 kmh N 10.1 mph16.3 kmh 30.22 in1023.4 mb 0.00 in0.0 mm 0.00 in0.0 mm 0.00 in0.0 mm
06:28 AM 57.4°F14.1°C 52.0°F11.1°C 82% 4.7 mph NNW7.6 kmh NNW 7.6 mph12.2 kmh 30.22 in1023.4 mb 0.00 in0.0 mm 0.00 in0.0 mm 0.00 in0.0 mm
06:43 AM 57.7°F14.3°C 50.9°F10.5°C 78% 3.4 mph NNW5.5 kmh NNW 7.6 mph12.2 kmh 30.22 in1023.4 mb 0.00 in0.0 mm 0.00 in0.0 mm 0.00 in0.0 mm
06:58 AM 58.3°F14.6°C 51.8°F11.0°C 79% 5.4 mph NNW8.7 kmh NNW 7.6 mph12.2 kmh 30.22 in1023.4 mb 0.00 in0.0 mm 0.00 in0.0 mm 0.00 in0.0 mm
07:13 AM 58.3°F14.6°C 51.4°F10.8°C 78% 5.4 mph NNW8.7 kmh NNW 10.1 mph16.3 kmh 30.22 in1023.4 mb 0.00 in0.0 mm 0.00 in0.0 mm 0.00 in0.0 mm
07:28 AM 58.6°F14.8°C 51.8°F11.0°C 78% 4.7 mph NNW7.6 kmh NNW 10.1 mph16.3 kmh 30.22 in1023.4 mb 0.00 in0.0 mm 0.00 in0.0 mm 0.00 in0.0 mm
07:43 AM 59.2°F15.1°C 51.6°F10.9°C 76% 6.3 mph NNW10.1 kmh NNW 10.1 mph16.3 kmh 30.22 in1023.4 mb 0.00 in0.0 mm 0.00 in0.0 mm 0.00 in0.0 mm
07:59 AM 59.7°F15.4°C 51.8°F11.0°C 75% 7.8 mph NNW12.6 kmh NNW 10.1 mph16.3 kmh 30.22 in1023.4 mb 0.00 in0.0 mm 0.00 in0.0 mm 0.00 in0.0 mm
08:14 AM 59.7°F15.4°C 52.5°F11.4°C 77% 6.0 mph N9.7 kmh N 10.1 mph16.3 kmh 30.23 in1023.7 mb 0.00 in0.0 mm 0.00 in0.0 mm 0.00 in0.0 mm
08:29 AM 59.9°F15.5°C 52.7°F11.5°C 77% 4.9 mph N7.9 kmh N 7.6 mph12.2 kmh 30.23 in1023.7 mb 0.00 in0.0 mm 0.00 in0.0 mm 0.00 in0.0 mm
08:44 AM 60.3°F15.7°C 52.3°F11.3°C 75% 1.8 mph NNW2.9 kmh NNW 10.1 mph16.3 kmh 30.24 in1024.0 mb 0.00 in0.0 mm 0.00 in0.0 mm 0.00 in0.0 mm
08:59 AM 61.5°F16.4°C 51.6°F10.9°C 70% Calm Calm 4.9 mph7.9 kmh 30.24 in1024.0 mb 0.00 in0.0 mm 0.00 in0.0 mm 0.00 in0.0 mm
09:14 AM 64.9°F18.3°C 53.8°F12.1°C 67% 2.2 mph SE3.5 kmh SE 4.9 mph7.9 kmh 30.25 in1024.4 mb 0.00 in0.0 mm 0.00 in0.0 mm 0.00 in0.0 mm
09:29 AM 67.5°F19.7°C 55.8°F13.2°C 66% 1.8 mph SSW2.9 kmh SSW 4.9 mph7.9 kmh 30.25 in1024.4 mb 0.00 in0.0 mm 0.00 in0.0 mm 0.00 in0.0 mm
09:44 AM 68.4°F20.2°C 57.0°F13.9°C 67% 1.8 mph SW2.9 kmh SW 10.1 mph16.3 kmh 30.25 in1024.4 mb 0.00 in0.0 mm 0.00 in0.0 mm 0.00 in0.0 mm
09:59 AM 68.7°F20.4°C 57.4°F14.1°C 67% 0.9 mph SE1.4 kmh SE 10.1 mph16.3 kmh 30.25 in1024.4 mb 0.00 in0.0 mm 0.00 in0.0 mm 0.00 in0.0 mm
10:14 AM 68.9°F20.5°C 57.9°F14.4°C 68% 1.6 mph S2.6 kmh S 10.1 mph16.3 kmh 30.25 in1024.4 mb 0.00 in0.0 mm 0.00 in0.0 mm 0.00 in0.0 mm
10:29 AM 68.9°F20.5°C 57.6°F14.2°C 67% 3.1 mph SSW5.0 kmh SSW 10.1 mph16.3 kmh 30.26 in1024.7 mb 0.00 in0.0 mm 0.00 in0.0 mm 0.00 in0.0 mm
10:44 AM 69.3°F20.7°C 57.9°F14.4°C 67% 5.4 mph S8.7 kmh S 12.5 mph20.1 kmh 30.26 in1024.7 mb 0.00 in0.0 mm 0.00 in0.0 mm 0.00 in0.0 mm
10:59 AM 68.9°F20.5°C 58.3°F14.6°C 69% 2.9 mph SE4.7 kmh SE 12.5 mph20.1 kmh 30.24 in1024.0 mb 0.00 in0.0 mm 0.00 in0.0 mm 0.00 in0.0 mm
11:14 AM 67.6°F19.8°C 59.7°F15.4°C 76% 2.2 mph SE3.5 kmh SE 10.1 mph16.3 kmh 30.25 in1024.4 mb 0.00 in0.0 mm 0.00 in0.0 mm 0.00 in0.0 mm
11:29 AM 66.4°F19.1°C 59.7°F15.4°C 79% Calm Calm 7.6 mph12.2 kmh 30.25 in1024.4 mb 0.00 in0.0 mm 0.00 in0.0 mm 0.00 in0.0 mm
11:44 AM 65.3°F18.5°C 59.4°F15.2°C 81% 1.6 mph SE2.6 kmh SE 7.6 mph12.2 kmh 30.24 in1024.0 mb 0.00 in0.0 mm 0.00 in0.0 mm 0.00 in0.0 mm
11:59 AM 64.8°F18.2°C 59.2°F15.1°C 82% Calm Calm 10.1 mph16.3 kmh 30.24 in1024.0 mb 0.00 in0.0 mm 0.00 in0.0 mm 0.00 in0.0 mm
12:14 PM 64.2°F17.9°C 59.4°F15.2°C 84% 1.6 mph SSW2.6 kmh SSW 7.6 mph12.2 kmh 30.24 in1024.0 mb 0.00 in0.0 mm 0.00 in0.0 mm 0.00 in0.0 mm
12:29 PM 63.9°F17.7°C 59.2°F15.1°C 85% 3.8 mph SE6.1 kmh SE 7.6 mph12.2 kmh 30.24 in1024.0 mb 0.00 in0.0 mm 0.00 in0.0 mm 0.00 in0.0 mm
12:44 PM 63.5°F17.5°C 59.2°F15.1°C 86% 1.8 mph SE2.9 kmh SE 7.6 mph12.2 kmh 30.23 in1023.7 mb 0.00 in0.0 mm 0.00 in0.0 mm 0.00 in0.0 mm
12:59 PM 63.3°F17.4°C 59.0°F15.0°C 86% 3.1 mph SSW5.0 kmh SSW 7.6 mph12.2 kmh 30.23 in1023.7 mb 0.00 in0.0 mm 0.00 in0.0 mm 0.00 in0.0 mm
01:15 PM 63.1°F17.3°C 59.2°F15.1°C 87% 0.2 mph S0.3 kmh S 7.6 mph12.2 kmh 30.22 in1023.4 mb 0.00 in0.0 mm 0.00 in0.0 mm 0.00 in0.0 mm
01:30 PM 63.1°F17.3°C 59.9°F15.5°C 89% Calm Calm 4.9 mph7.9 kmh 30.21 in1023.0 mb 0.00 in0.0 mm 0.00 in0.0 mm 0.00 in0.0 mm
01:45 PM 63.1°F17.3°C 59.9°F15.5°C 89% 1.8 mph S2.9 kmh S 4.9 mph7.9 kmh 30.21 in1023.0 mb 0.00 in0.0 mm 0.00 in0.0 mm 0.00 in0.0 mm
02:00 PM 62.8°F17.1°C 59.5°F15.3°C 89% 3.1 mph SE5.0 kmh SE 7.6 mph12.2 kmh 30.21 in1023.0 mb 0.00 in0.0 mm 0.00 in0.0 mm 0.00 in0.0 mm
02:15 PM 62.4°F16.9°C 59.4°F15.2°C 90% Calm Calm 4.9 mph7.9 kmh 30.21 in1023.0 mb 0.00 in0.0 mm 0.00 in0.0 mm 0.00 in0.0 mm
02:30 PM 62.2°F16.8°C 59.5°F15.3°C 91% Calm Calm 2.5 mph4.0 kmh 30.20 in1022.7 mb 0.00 in0.0 mm 0.00 in0.0 mm 0.00 in0.0 mm
02:45 PM 62.1°F16.7°C 59.4°F15.2°C 91% 2.9 mph SSW4.7 kmh SSW 4.9 mph7.9 kmh 30.20 in1022.7 mb 0.00 in0.0 mm 0.00 in0.0 mm 0.00 in0.0 mm
03:00 PM 62.1°F16.7°C 59.2°F15.1°C 90% Calm Calm 4.9 mph7.9 kmh 30.19 in1022.4 mb 0.00 in0.0 mm 0.00 in0.0 mm 0.00 in0.0 mm
03:15 PM 62.1°F16.7°C 57.7°F14.3°C 86% Calm Calm 2.5 mph4.0 kmh 30.19 in1022.4 mb 0.00 in0.0 mm 0.00 in0.0 mm 0.00 in0.0 mm
03:30 PM 62.4°F16.9°C 57.2°F14.0°C 83% 1.6 mph SSE2.6 kmh SSE 4.9 mph7.9 kmh 30.20 in1022.7 mb 0.00 in0.0 mm 0.00 in0.0 mm 0.00 in0.0 mm
03:45 PM 62.6°F17.0°C 57.7°F14.3°C 84% Calm Calm 2.5 mph4.0 kmh 30.20 in1022.7 mb 0.00 in0.0 mm 0.00 in0.0 mm 0.00 in0.0 mm
04:00 PM 62.6°F17.0°C 56.7°F13.7°C 81% Calm Calm 2.5 mph4.0 kmh 30.20 in1022.7 mb 0.00 in0.0 mm 0.00 in0.0 mm 0.00 in0.0 mm
04:15 PM 62.8°F17.1°C 57.6°F14.2°C 83% 0.2 mph S0.3 kmh S 4.9 mph7.9 kmh 30.20 in1022.7 mb 0.00 in0.0 mm 0.00 in0.0 mm 0.00 in0.0 mm
04:30 PM 62.8°F17.1°C 56.8°F13.8°C 81% Calm Calm 2.5 mph4.0 kmh 30.20 in1022.7 mb 0.00 in0.0 mm 0.00 in0.0 mm 0.00 in0.0 mm
04:45 PM 63.0°F17.2°C 57.0°F13.9°C 81% Calm Calm 2.5 mph4.0 kmh 30.20 in1022.7 mb 0.00 in0.0 mm 0.00 in0.0 mm 0.00 in0.0 mm
05:00 PM 63.1°F17.3°C 57.2°F14.0°C 81% Calm Calm 2.5 mph4.0 kmh 30.20 in1022.7 mb 0.00 in0.0 mm 0.00 in0.0 mm 0.00 in0.0 mm
05:15 PM 63.1°F17.3°C 56.8°F13.8°C 80% Calm Calm 2.5 mph4.0 kmh 30.20 in1022.7 mb 0.00 in0.0 mm 0.00 in0.0 mm 0.00 in0.0 mm
05:30 PM 63.3°F17.4°C 56.7°F13.7°C 79% Calm Calm 2.5 mph4.0 kmh 30.20 in1022.7 mb 0.00 in0.0 mm 0.00 in0.0 mm 0.00 in0.0 mm
05:45 PM 63.3°F17.4°C 56.7°F13.7°C 79% Calm Calm -- 30.19 in1022.4 mb 0.00 in0.0 mm 0.00 in0.0 mm 0.00 in0.0 mm
06:00 PM 63.1°F17.3°C 56.8°F13.8°C 80% Calm Calm -- 30.19 in1022.4 mb 0.00 in0.0 mm 0.00 in0.0 mm 0.00 in0.0 mm
06:15 PM 63.0°F17.2°C 57.7°F14.3°C 83% Calm Calm 2.5 mph4.0 kmh 30.19 in1022.4 mb 0.00 in0.0 mm 0.00 in0.0 mm 0.00 in0.0 mm
06:31 PM 62.6°F17.0°C 58.3°F14.6°C 86% Calm Calm 4.9 mph7.9 kmh 30.19 in1022.4 mb 0.00 in0.0 mm 0.00 in0.0 mm 0.00 in0.0 mm
06:46 PM 61.9°F16.6°C 57.9°F14.4°C 87% Calm Calm 4.9 mph7.9 kmh 30.20 in1022.7 mb 0.00 in0.0 mm 0.00 in0.0 mm 0.00 in0.0 mm
07:01 PM 61.5°F16.4°C 57.6°F14.2°C 87% 0.9 mph N1.4 kmh N 4.9 mph7.9 kmh 30.21 in1023.0 mb 0.00 in0.0 mm 0.00 in0.0 mm 0.00 in0.0 mm
07:16 PM 61.3°F16.3°C 57.7°F14.3°C 88% 0.7 mph NNW1.1 kmh NNW 4.9 mph7.9 kmh 30.21 in1023.0 mb 0.00 in0.0 mm 0.00 in0.0 mm 0.00 in0.0 mm
07:31 PM 61.2°F16.2°C 57.2°F14.0°C 87% 3.8 mph NNW6.1 kmh NNW 4.9 mph7.9 kmh 30.21 in1023.0 mb 0.00 in0.0 mm 0.00 in0.0 mm 0.00 in0.0 mm
07:46 PM 61.2°F16.2°C 57.0°F13.9°C 86% 1.6 mph NNW2.6 kmh NNW 7.6 mph12.2 kmh 30.21 in1023.0 mb 0.00 in0.0 mm 0.00 in0.0 mm 0.00 in0.0 mm
08:01 PM 61.2°F16.2°C 56.3°F13.5°C 84% 6.0 mph NW9.7 kmh NW 7.6 mph12.2 kmh 30.22 in1023.4 mb 0.00 in0.0 mm 0.00 in0.0 mm 0.00 in0.0 mm
08:16 PM 60.8°F16.0°C 55.9°F13.3°C 84% 5.6 mph NNW9.0 kmh NNW 10.1 mph16.3 kmh 30.21 in1023.0 mb 0.00 in0.0 mm 0.00 in0.0 mm 0.00 in0.0 mm
08:31 PM 60.3°F15.7°C 55.4°F13.0°C 84% 6.9 mph NNW11.1 kmh NNW 12.5 mph20.1 kmh 30.21 in1023.0 mb 0.00 in0.0 mm 0.00 in0.0 mm 0.00 in0.0 mm
08:46 PM 59.7°F15.4°C 53.6°F12.0°C 80% 7.2 mph NNW11.6 kmh NNW 10.1 mph16.3 kmh 30.22 in1023.4 mb 0.00 in0.0 mm 0.00 in0.0 mm 0.00 in0.0 mm
09:01 PM 59.4°F15.2°C 53.8°F12.1°C 82% 4.5 mph NW7.2 kmh NW 10.1 mph16.3 kmh 30.22 in1023.4 mb 0.00 in0.0 mm 0.00 in0.0 mm 0.00 in0.0 mm
09:16 PM 59.4°F15.2°C 54.5°F12.5°C 84% 6.3 mph N10.1 kmh N 10.1 mph16.3 kmh 30.22 in1023.4 mb 0.00 in0.0 mm 0.00 in0.0 mm 0.00 in0.0 mm
09:31 PM 59.4°F15.2°C 54.5°F12.5°C 84% 9.6 mph NNW15.4 kmh NNW 10.1 mph16.3 kmh 30.23 in1023.7 mb 0.00 in0.0 mm 0.00 in0.0 mm 0.00 in0.0 mm
09:46 PM 59.2°F15.1°C 53.6°F12.0°C 82% 7.2 mph NNW11.6 kmh NNW 12.5 mph20.1 kmh 30.23 in1023.7 mb 0.00 in0.0 mm 0.00 in0.0 mm 0.00 in0.0 mm
10:01 PM 59.2°F15.1°C 53.4°F11.9°C 81% 6.9 mph NNW11.1 kmh NNW 12.5 mph20.1 kmh 30.23 in1023.7 mb 0.00 in0.0 mm 0.00 in0.0 mm 0.00 in0.0 mm
10:16 PM 59.2°F15.1°C 53.4°F11.9°C 81% 4.7 mph NNW7.6 kmh NNW 10.1 mph16.3 kmh 30.23 in1023.7 mb 0.00 in0.0 mm 0.00 in0.0 mm 0.00 in0.0 mm
10:31 PM 59.2°F15.1°C 53.4°F11.9°C 81% 4.7 mph NNW7.6 kmh NNW 10.1 mph16.3 kmh 30.24 in1024.0 mb 0.00 in0.0 mm 0.00 in0.0 mm 0.00 in0.0 mm
10:46 PM 59.0°F15.0°C 52.9°F11.6°C 80% 6.0 mph NNW9.7 kmh NNW 10.1 mph16.3 kmh 30.24 in1024.0 mb 0.00 in0.0 mm 0.00 in0.0 mm 0.00 in0.0 mm
11:01 PM 59.0°F15.0°C 53.2°F11.8°C 81% 8.5 mph NNW13.7 kmh NNW 10.1 mph16.3 kmh 30.24 in1024.0 mb 0.00 in0.0 mm 0.00 in0.0 mm 0.00 in0.0 mm
11:16 PM 59.2°F15.1°C 53.4°F11.9°C 81% 6.0 mph NW9.7 kmh NW 10.1 mph16.3 kmh 30.24 in1024.0 mb 0.00 in0.0 mm 0.00 in0.0 mm 0.00 in0.0 mm
11:31 PM 59.2°F15.1°C 53.4°F11.9°C 81% 5.6 mph NNW9.0 kmh NNW 10.1 mph16.3 kmh 30.24 in1024.0 mb 0.00 in0.0 mm 0.00 in0.0 mm 0.00 in0.0 mm
11:46 PM 59.0°F15.0°C 53.6°F12.0°C 82% 6.0 mph N9.7 kmh N 10.1 mph16.3 kmh 30.24 in1024.0 mb 0.00 in0.0 mm 0.00 in0.0 mm 0.00 in0.0 mm